Dakar, Senegal

10:16 PM GMT on December 07, 2016 (GMT +0000)
Leopold Sedar Senghor | | Change Station

Elev 79 ft 14.74 °N, 17.49 °W | Updated 16 minutes ago

Clear
Clear
72 °F
Feels Like 72 °F
N
1
Wind Variable Wind from Variable

Today
High -- | Low -- °F
--% Chance of Precip.
Yesterday
High -- | Low -- °F
Precip. -- in
Pressure 29.92 in
Visibility -9999.0 miles
Clouds
Dew Point 68 °F
Humidity 88%
Rainfall 0.00 in
Snow Depth Not available.
7:22 AM 6:40 PM
First Quarter, 56% visible
METAR GOOY 072200Z VRB01KT CAVOK 22/20 Q1013 NOSIG
Pressure 29.92 in
Visibility -9999.0 miles
Clouds
Dew Point 68 °F
Humidity 88%
Rainfall 0.00 in
Snow Depth Not available.
7:22 AM 6:40 PM
First Quarter, 56% visible
METAR GOOY 072200Z VRB01KT CAVOK 22/20 Q1013 NOSIG

10-Day Weather Forecast

No radar image for this location.
×

Almanac

Astronomy

Dec. 07, 2016 Rise Set
Actual Time
Civil Twilight
Nautical Twilight
Astronomical Twilight
Moon
Length of Visible Light
Length of Day
Tomorrow will be .
, % of the Moon is Illuminated

Today's Extremes

Country Highs Country Lows

Community

WunderPhotos

Upload Photos

1,956,209 photos uploaded!

WunderBlog® & News

Nearby

Air Quality

  Air Quality AQ Index Pollutant
Not available.

Snow Depth

Station Depth Elevation

Earthquake Activity

City Distance Mag. Time & Date
Minimum magnitude displayed is 2.5.

Coastal Water Temperatures

Place Temperature

Stations

Nearby Weather Stations

Station Location Temp. Windchill Dew Point Humidity Wind Precip. Elev Updated Type